Terminal Aerodrome Forecast
Issued by NWS

Home | Current Version | Previous Version | Text Only | Print | Product List | Glossary On
Versions: 1 2 3 4 5 6 7 8 9 10 11 12 13 14 15 16 17 18 19 20
000
FTUS45 KABQ 192300
TAFTCC
TAF
KTCC 192328Z 2000/2024 15005KT P6SM VCSH BKN080
     FM200400 18010KT P6SM VCFG SCT004 BKN025 OVC040
     FM200700 30005KT P6SM VCFG SCT002 BKN015 OVC025
     FM201100 33005KT P6SM VCFG SCT004 BKN025 OVC040
     FM201700 09010KT P6SM SCT025 BKN040=

USA.gov is the U.S. government's official web portal to all federal, state and local government web resources and services.